Time;durP1;ratioP1;P1;durP2;ratioP2;P2;SDS_P1;SDS_P2;PMS_P1;PMS_P2;Temp;Humidity;BMP_temperature;BMP_pressure;BME280_temperature;BME280_humidity;BME280_pressure;Samples;Min_cycle;Max_cycle;Signal;HPM_P1;HPM_P2
2023/05/19 00:01:44;;;;;;;1.60;0.80;;;;;;;;;;5007314;28;20204;-55
2023/05/19 00:04:13;;;;;;;1.77;0.73;;;;;;;;;;5006423;28;20257;-55
2023/05/19 00:06:41;;;;;;;5.87;0.80;;;;;;;;;;5004124;28;20205;-55
2023/05/19 00:09:09;;;;;;;2.13;0.80;;;;;;;;;;4988626;28;20389;-55
2023/05/19 00:11:37;;;;;;;0.70;0.50;;;;;;;;;;4988694;28;20214;-55
2023/05/19 00:14:06;;;;;;;1.00;1.00;;;;;;;;;;4989324;28;20210;-55
2023/05/19 00:16:33;;;;;;;2.00;0.60;;;;;;;;;;4988424;28;20205;-55
2023/05/19 00:19:01;;;;;;;1.13;0.90;;;;;;;;;;4991666;28;20365;-55
2023/05/19 00:21:30;;;;;;;3.10;0.70;;;;;;;;;;5005619;28;20233;-55
2023/05/19 00:23:57;;;;;;;0.77;0.77;;;;;;;;;;5005730;28;20232;-55
2023/05/19 00:26:25;;;;;;;1.03;0.67;;;;;;;;;;5006538;28;20287;-55
2023/05/19 00:28:53;;;;;;;3.90;1.00;;;;;;;;;;5005704;28;20296;-55
2023/05/19 00:31:21;;;;;;;1.60;0.60;;;;;;;;;;5007414;28;20212;-55
2023/05/19 00:33:48;;;;;;;2.90;0.63;;;;;;;;;;4988238;28;20697;-55
2023/05/19 00:36:15;;;;;;;1.10;0.63;;;;;;;;;;5008324;28;20209;-55
2023/05/19 00:38:42;;;;;;;0.60;0.60;;;;;;;;;;5006194;28;20679;-55
2023/05/19 00:41:09;;;;;;;0.70;0.70;;;;;;;;;;5006814;28;20271;-55
2023/05/19 00:43:36;;;;;;;1.80;0.70;;;;;;;;;;4996546;28;20210;-55
2023/05/19 00:46:04;;;;;;;0.80;0.80;;;;;;;;;;4989103;28;20225;-55
2023/05/19 00:48:32;;;;;;;0.40;0.40;;;;;;;;;;4987827;28;20225;-55
2023/05/19 00:51:04;;;;;;;0.67;0.67;;;;;;;;;;4998823;28;20858;-54
2023/05/19 00:53:31;;;;;;;5.03;0.80;;;;;;;;;;5006605;28;20213;-55
2023/05/19 00:55:58;;;;;;;0.63;0.63;;;;;;;;;;5004804;28;20205;-55
2023/05/19 00:58:28;;;;;;;0.43;0.40;;;;;;;;;;4998321;28;20209;-55
2023/05/19 01:00:56;;;;;;;1.13;0.50;;;;;;;;;;4984127;28;20216;-55
2023/05/19 01:03:24;;;;;;;3.03;0.80;;;;;;;;;;4999178;28;20259;-55
2023/05/19 01:05:52;;;;;;;0.73;0.67;;;;;;;;;;4986449;28;20247;-55
2023/05/19 01:08:20;;;;;;;1.60;0.50;;;;;;;;;;4983846;28;20217;-55
2023/05/19 01:13:31;;;;;;;1.13;0.70;;;;;;;;;;4991156;28;20251;-55
2023/05/19 01:16:00;;;;;;;0.73;0.43;;;;;;;;;;5007160;28;20228;-55
2023/05/19 01:18:32;;;;;;;3.30;0.80;;;;;;;;;;5005035;28;20951;-54
2023/05/19 01:21:05;;;;;;;0.63;0.63;;;;;;;;;;5005660;28;20580;-55
2023/05/19 01:23:36;;;;;;;3.10;0.70;;;;;;;;;;4989714;28;20249;-55
2023/05/19 01:26:24;;;;;;;0.60;0.60;;;;;;;;;;5000972;28;20319;-55
2023/05/19 01:29:03;;;;;;;0.83;0.30;;;;;;;;;;5004964;28;20205;-55
2023/05/19 01:31:32;;;;;;;0.60;0.60;;;;;;;;;;5005405;28;20275;-55
2023/05/19 01:34:00;;;;;;;2.30;1.00;;;;;;;;;;5006084;28;20201;-55
2023/05/19 01:36:28;;;;;;;1.93;0.80;;;;;;;;;;5005517;28;20209;-55
2023/05/19 01:38:56;;;;;;;5.70;0.60;;;;;;;;;;5007787;28;20440;-55
2023/05/19 01:41:23;;;;;;;4.30;0.90;;;;;;;;;;5009523;28;20205;-55
2023/05/19 01:43:51;;;;;;;1.27;0.50;;;;;;;;;;5008422;28;20240;-56
2023/05/19 01:46:19;;;;;;;1.40;0.83;;;;;;;;;;4992342;28;20316;-55
2023/05/19 01:48:47;;;;;;;0.63;0.63;;;;;;;;;;4990764;28;20220;-55
2023/05/19 01:51:14;;;;;;;3.07;0.70;;;;;;;;;;5006007;28;20274;-55
2023/05/19 01:53:41;;;;;;;0.70;0.70;;;;;;;;;;5010114;28;20209;-55
2023/05/19 01:56:09;;;;;;;0.60;0.60;;;;;;;;;;4998954;28;20202;-55
2023/05/19 01:58:40;;;;;;;3.03;0.90;;;;;;;;;;5006634;28;20539;-55
2023/05/19 02:01:11;;;;;;;0.43;0.43;;;;;;;;;;4998514;28;20668;-55
2023/05/19 02:03:46;;;;;;;0.50;0.50;;;;;;;;;;4997092;28;20209;-55
2023/05/19 02:06:19;;;;;;;0.40;0.40;;;;;;;;;;5009350;28;20224;-55
2023/05/19 02:08:52;;;;;;;0.80;0.57;;;;;;;;;;5010158;28;20209;-55
2023/05/19 02:11:22;;;;;;;1.07;0.50;;;;;;;;;;5009096;28;20209;-55
2023/05/19 02:13:50;;;;;;;1.50;0.80;;;;;;;;;;5009871;28;20217;-55
2023/05/19 02:16:18;;;;;;;0.80;0.80;;;;;;;;;;5007432;28;20625;-55
2023/05/19 02:18:46;;;;;;;1.70;0.90;;;;;;;;;;5009708;28;20209;-55
2023/05/19 02:21:13;;;;;;;5.03;0.70;;;;;;;;;;5008919;28;20312;-55
2023/05/19 02:23:42;;;;;;;1.17;0.60;;;;;;;;;;5002255;28;20238;-55
2023/05/19 02:26:09;;;;;;;0.27;0.27;;;;;;;;;;4992292;28;20228;-55
2023/05/19 02:28:36;;;;;;;0.40;0.40;;;;;;;;;;5005546;28;20212;-55
2023/05/19 02:31:05;;;;;;;2.33;1.00;;;;;;;;;;4997884;28;20474;-55
2023/05/19 02:33:32;;;;;;;1.00;0.90;;;;;;;;;;4998860;28;20622;-55
2023/05/19 02:35:59;;;;;;;6.37;0.60;;;;;;;;;;5009779;28;20212;-55
2023/05/19 02:38:26;;;;;;;7.60;0.50;;;;;;;;;;5006624;28;20201;-55
2023/05/19 02:40:54;;;;;;;1.93;0.80;;;;;;;;;;5009579;28;20244;-55
2023/05/19 02:43:21;;;;;;;0.83;0.40;;;;;;;;;;5005490;28;20581;-55
2023/05/19 02:45:48;;;;;;;1.80;0.70;;;;;;;;;;5009722;28;20236;-55
2023/05/19 02:48:15;;;;;;;1.60;0.70;;;;;;;;;;5006167;28;20226;-55
2023/05/19 02:50:42;;;;;;;3.03;0.70;;;;;;;;;;5009331;28;20209;-55
2023/05/19 02:53:09;;;;;;;0.70;0.50;;;;;;;;;;5008057;28;20295;-55
2023/05/19 02:55:36;;;;;;;1.03;0.93;;;;;;;;;;5001050;28;20272;-55
2023/05/19 02:58:05;;;;;;;0.50;0.50;;;;;;;;;;5006598;28;20205;-55
2023/05/19 03:00:32;;;;;;;1.27;0.90;;;;;;;;;;5008041;28;20221;-55
2023/05/19 03:03:01;;;;;;;0.50;0.50;;;;;;;;;;4994496;28;20303;-55
2023/05/19 03:05:29;;;;;;;1.50;0.70;;;;;;;;;;4993963;28;20235;-55
2023/05/19 03:07:56;;;;;;;1.57;0.70;;;;;;;;;;4999584;28;20213;-55
2023/05/19 03:10:23;;;;;;;4.23;0.70;;;;;;;;;;5008387;28;20259;-55
2023/05/19 03:12:50;;;;;;;0.80;0.70;;;;;;;;;;4991679;28;20743;-55
2023/05/19 03:15:21;;;;;;;0.90;0.83;;;;;;;;;;4989537;28;20665;-55
2023/05/19 03:17:48;;;;;;;0.73;0.70;;;;;;;;;;4989655;28;20710;-55
2023/05/19 03:20:15;;;;;;;0.60;0.60;;;;;;;;;;4989887;28;20284;-55
2023/05/19 03:22:42;;;;;;;0.70;0.70;;;;;;;;;;5004511;28;20332;-55
2023/05/19 03:25:09;;;;;;;1.47;0.63;;;;;;;;;;5007966;28;20718;-54
2023/05/19 03:27:36;;;;;;;4.77;0.63;;;;;;;;;;4996110;28;20209;-55
2023/05/19 03:30:04;;;;;;;0.97;0.87;;;;;;;;;;5003623;28;20255;-55
2023/05/19 03:32:32;;;;;;;1.50;0.70;;;;;;;;;;5005956;28;20308;-55
2023/05/19 03:34:59;;;;;;;1.23;0.73;;;;;;;;;;5008602;28;20208;-55
2023/05/19 03:37:26;;;;;;;2.13;0.60;;;;;;;;;;5006486;28;20228;-55
2023/05/19 03:39:53;;;;;;;1.00;1.00;;;;;;;;;;5007774;28;20308;-55
2023/05/19 03:42:20;;;;;;;1.00;0.73;;;;;;;;;;5004288;28;20212;-55
2023/05/19 03:44:47;;;;;;;0.80;0.80;;;;;;;;;;5003331;28;20712;-55
2023/05/19 03:47:14;;;;;;;0.97;0.50;;;;;;;;;;4993252;28;20205;-55
2023/05/19 03:49:43;;;;;;;2.20;0.77;;;;;;;;;;5004188;28;20263;-55
2023/05/19 03:52:11;;;;;;;0.87;0.67;;;;;;;;;;4993631;28;20661;-55
2023/05/19 03:54:41;;;;;;;1.53;0.70;;;;;;;;;;4993876;28;20211;-55
2023/05/19 03:57:08;;;;;;;0.80;0.70;;;;;;;;;;5005842;28;20193;-54
2023/05/19 03:59:36;;;;;;;1.93;0.77;;;;;;;;;;5001435;28;20264;-55
2023/05/19 04:02:03;;;;;;;1.57;0.60;;;;;;;;;;5004813;28;20216;-55
2023/05/19 04:04:30;;;;;;;2.10;0.70;;;;;;;;;;5008302;28;20217;-55
2023/05/19 04:06:58;;;;;;;2.67;0.50;;;;;;;;;;5007727;28;20233;-55
2023/05/19 04:09:25;;;;;;;1.73;0.83;;;;;;;;;;5007565;28;20239;-55
2023/05/19 04:11:52;;;;;;;1.13;0.60;;;;;;;;;;4988550;28;20300;-55
2023/05/19 04:14:20;;;;;;;4.10;0.83;;;;;;;;;;4988298;28;20222;-55
2023/05/19 04:16:47;;;;;;;2.27;0.70;;;;;;;;;;5005772;28;20730;-55
2023/05/19 04:19:14;;;;;;;0.97;0.97;;;;;;;;;;4988701;28;20641;-55
2023/05/19 04:21:41;;;;;;;1.40;0.67;;;;;;;;;;4988509;28;20234;-55
2023/05/19 04:24:09;;;;;;;7.03;0.97;;;;;;;;;;4988286;28;20241;-55
2023/05/19 04:26:37;;;;;;;0.80;0.80;;;;;;;;;;5001855;28;20364;-55
2023/05/19 04:29:04;;;;;;;1.70;0.80;;;;;;;;;;5008306;28;20213;-55
2023/05/19 04:31:33;;;;;;;0.87;0.80;;;;;;;;;;5004155;28;20630;-55
2023/05/19 04:34:00;;;;;;;0.80;0.80;;;;;;;;;;5007874;28;20683;-55
2023/05/19 04:36:27;;;;;;;0.53;0.53;;;;;;;;;;5006500;28;20296;-55
2023/05/19 04:39:01;;;;;;;0.83;0.63;;;;;;;;;;5008244;28;20262;-55
2023/05/19 04:41:29;;;;;;;3.37;0.90;;;;;;;;;;4994935;28;20212;-55
2023/05/19 04:43:56;;;;;;;2.03;1.07;;;;;;;;;;4988389;28;20218;-55
2023/05/19 04:46:24;;;;;;;0.93;0.60;;;;;;;;;;4988205;28;20231;-55
2023/05/19 04:48:52;;;;;;;0.30;0.30;;;;;;;;;;4988188;28;20209;-55
2023/05/19 04:51:19;;;;;;;2.17;0.67;;;;;;;;;;5000161;28;20259;-55
2023/05/19 04:53:46;;;;;;;0.87;0.67;;;;;;;;;;5007921;28;20227;-55
2023/05/19 04:56:14;;;;;;;0.70;0.70;;;;;;;;;;5006134;28;20209;-55
2023/05/19 04:58:43;;;;;;;3.27;0.80;;;;;;;;;;5007486;28;20651;-56
2023/05/19 05:01:12;;;;;;;1.33;0.60;;;;;;;;;;5002996;28;20304;-55
2023/05/19 05:03:39;;;;;;;1.03;0.50;;;;;;;;;;4991935;28;20209;-54
2023/05/19 05:06:07;;;;;;;4.07;0.80;;;;;;;;;;4997917;28;20283;-55
2023/05/19 05:08:36;;;;;;;1.00;0.63;;;;;;;;;;5006033;28;20243;-55
2023/05/19 05:11:03;;;;;;;2.03;0.90;;;;;;;;;;4993269;28;20682;-54
2023/05/19 05:13:31;;;;;;;0.73;0.60;;;;;;;;;;4991381;28;20799;-55
2023/05/19 05:15:59;;;;;;;2.60;0.80;;;;;;;;;;5009584;28;20255;-55
2023/05/19 05:18:27;;;;;;;1.20;0.70;;;;;;;;;;5011186;28;20230;-55
2023/05/19 05:20:54;;;;;;;2.17;1.00;;;;;;;;;;4991667;28;20236;-55
2023/05/19 05:23:21;;;;;;;0.93;0.40;;;;;;;;;;4999624;28;20237;-54
2023/05/19 05:25:49;;;;;;;0.77;0.77;;;;;;;;;;4991903;28;20229;-55
2023/05/19 05:28:16;;;;;;;0.53;0.53;;;;;;;;;;4991617;28;20214;-54
2023/05/19 05:30:43;;;;;;;1.03;0.70;;;;;;;;;;5009289;28;20288;-55
2023/05/19 05:33:12;;;;;;;2.57;0.60;;;;;;;;;;5010674;28;20232;-55
2023/05/19 05:35:39;;;;;;;4.77;0.90;;;;;;;;;;5010468;28;20205;-55
2023/05/19 05:38:06;;;;;;;0.57;0.57;;;;;;;;;;5011399;28;20251;-55
2023/05/19 05:40:34;;;;;;;0.53;0.53;;;;;;;;;;5009802;28;20217;-55
2023/05/19 05:43:01;;;;;;;13.53;2.70;;;;;;;;;;5004113;28;20206;-55
2023/05/19 05:45:28;;;;;;;4.77;0.97;;;;;;;;;;4999535;28;20809;-55
2023/05/19 05:47:55;;;;;;;3.50;1.20;;;;;;;;;;5009114;28;20228;-55
2023/05/19 05:50:24;;;;;;;1.33;0.70;;;;;;;;;;5009637;28;20205;-55
2023/05/19 05:52:51;;;;;;;0.57;0.57;;;;;;;;;;4990906;28;20210;-56
2023/05/19 05:55:18;;;;;;;0.40;0.40;;;;;;;;;;4990758;28;20240;-55
2023/05/19 05:57:47;;;;;;;0.70;0.70;;;;;;;;;;5009524;28;20209;-56
2023/05/19 06:00:15;;;;;;;0.63;0.63;;;;;;;;;;4995746;28;20241;-55
2023/05/19 06:02:43;;;;;;;1.43;0.90;;;;;;;;;;4999457;28;20677;-55
2023/05/19 06:05:12;;;;;;;1.40;0.77;;;;;;;;;;5014575;28;20236;-55
2023/05/19 06:07:41;;;;;;;3.00;0.70;;;;;;;;;;5029451;28;20232;-55
2023/05/19 06:10:08;;;;;;;0.77;0.70;;;;;;;;;;5010101;28;20216;-55
2023/05/19 06:12:38;;;;;;;0.50;0.50;;;;;;;;;;5010056;28;20208;-55
2023/05/19 06:15:06;;;;;;;4.17;0.70;;;;;;;;;;5009966;28;20217;-55
2023/05/19 06:17:34;;;;;;;1.37;0.80;;;;;;;;;;5009589;28;20579;-55
2023/05/19 06:20:01;;;;;;;0.77;0.60;;;;;;;;;;5009493;28;20240;-55
2023/05/19 06:22:28;;;;;;;0.97;0.70;;;;;;;;;;5009558;28;20288;-56
2023/05/19 06:24:56;;;;;;;0.73;0.70;;;;;;;;;;5009235;28;20704;-55
2023/05/19 06:27:23;;;;;;;0.70;0.70;;;;;;;;;;5009529;28;20237;-55
2023/05/19 06:29:51;;;;;;;0.70;0.70;;;;;;;;;;5009390;28;20213;-55
2023/05/19 06:32:18;;;;;;;1.50;0.73;;;;;;;;;;5009714;28;20965;-56
2023/05/19 06:34:45;;;;;;;2.43;0.70;;;;;;;;;;5009776;28;20216;-55
2023/05/19 06:37:13;;;;;;;3.93;0.70;;;;;;;;;;5009263;28;20228;-55
2023/05/19 06:39:40;;;;;;;0.80;0.80;;;;;;;;;;5009369;28;20209;-55
2023/05/19 06:42:09;;;;;;;0.60;0.60;;;;;;;;;;5009332;28;20205;-55
2023/05/19 06:44:36;;;;;;;0.70;0.70;;;;;;;;;;5009915;28;20683;-55
2023/05/19 06:47:03;;;;;;;1.73;0.93;;;;;;;;;;5001959;28;20230;-55
2023/05/19 06:49:30;;;;;;;1.27;1.00;;;;;;;;;;4989582;28;20264;-55
2023/05/19 06:51:57;;;;;;;2.87;0.97;;;;;;;;;;4995750;28;20209;-55
2023/05/19 06:54:24;;;;;;;0.65;0.52;;;;;;;;;;4993252;28;20209;-56
2023/05/19 06:56:51;;;;;;;4.22;0.60;;;;;;;;;;4994591;28;20553;-58
2023/05/19 06:59:21;;;;;;;0.98;0.68;;;;;;;;;;4988677;28;20267;-58
2023/05/19 07:01:48;;;;;;;4.47;0.77;;;;;;;;;;5002274;28;20209;-58
2023/05/19 07:04:15;;;;;;;9.43;0.50;;;;;;;;;;5008743;28;20221;-58
2023/05/19 07:06:42;;;;;;;3.28;0.90;;;;;;;;;;4996109;28;20229;-58
2023/05/19 07:09:09;;;;;;;1.85;0.75;;;;;;;;;;4988619;28;20214;-56
2023/05/19 07:11:36;;;;;;;2.28;0.60;;;;;;;;;;4999510;28;20656;-56
2023/05/19 07:14:03;;;;;;;0.43;0.43;;;;;;;;;;5007231;28;20213;-56
2023/05/19 07:16:31;;;;;;;4.65;0.77;;;;;;;;;;5007952;28;20220;-55
2023/05/19 07:18:58;;;;;;;0.50;0.50;;;;;;;;;;5006833;28;20205;-56
2023/05/19 07:21:25;;;;;;;2.28;0.80;;;;;;;;;;5007883;28;20233;-56
2023/05/19 07:23:52;;;;;;;0.85;0.82;;;;;;;;;;5007803;28;20253;-58
2023/05/19 07:26:19;;;;;;;1.35;0.60;;;;;;;;;;5006726;28;20620;-56
2023/05/19 07:28:46;;;;;;;2.40;0.90;;;;;;;;;;5006971;28;20213;-56
2023/05/19 07:31:13;;;;;;;0.57;0.57;;;;;;;;;;5008393;28;20239;-56
2023/05/19 07:33:42;;;;;;;1.75;0.50;;;;;;;;;;4997763;28;20221;-56
2023/05/19 07:36:09;;;;;;;3.40;0.70;;;;;;;;;;4990426;28;20728;-55
2023/05/19 07:38:36;;;;;;;0.63;0.60;;;;;;;;;;5004938;28;20208;-56
2023/05/19 07:41:03;;;;;;;0.70;0.70;;;;;;;;;;5007866;28;20224;-56
2023/05/19 07:43:30;;;;;;;0.88;0.63;;;;;;;;;;5008248;28;20244;-56
2023/05/19 07:45:57;;;;;;;0.82;0.65;;;;;;;;;;5008632;28;20285;-56
2023/05/19 07:48:24;;;;;;;1.27;0.80;;;;;;;;;;5008098;28;20213;-56
2023/05/19 07:50:53;;;;;;;1.02;0.65;;;;;;;;;;5008247;28;20216;-56
2023/05/19 07:53:21;;;;;;;3.95;0.70;;;;;;;;;;5008262;28;20643;-56
2023/05/19 07:55:48;;;;;;;0.77;0.77;;;;;;;;;;5008424;28;20231;-55
2023/05/19 07:58:16;;;;;;;0.77;0.77;;;;;;;;;;5007999;28;20271;-56
2023/05/19 08:00:44;;;;;;;0.77;0.45;;;;;;;;;;5007879;28;20216;-56
2023/05/19 08:03:11;;;;;;;4.63;0.95;;;;;;;;;;5007786;28;20300;-56
2023/05/19 08:05:39;;;;;;;0.50;0.50;;;;;;;;;;5008281;28;20235;-56
2023/05/19 08:08:08;;;;;;;1.52;0.70;;;;;;;;;;5007883;28;20239;-56
2023/05/19 08:10:35;;;;;;;0.65;0.65;;;;;;;;;;5007835;28;20301;-56
2023/05/19 08:13:02;;;;;;;0.93;0.52;;;;;;;;;;5007624;28;20213;-56
2023/05/19 08:15:29;;;;;;;4.22;0.70;;;;;;;;;;5007909;28;20216;-56
2023/05/19 08:17:56;;;;;;;0.70;0.70;;;;;;;;;;5008039;28;20231;-56
2023/05/19 08:20:23;;;;;;;3.72;0.80;;;;;;;;;;5000815;28;20249;-56
2023/05/19 08:22:50;;;;;;;3.92;0.60;;;;;;;;;;4997257;28;20232;-56
2023/05/19 08:25:18;;;;;;;2.05;0.82;;;;;;;;;;4988442;28;20293;-63
2023/05/19 08:27:46;;;;;;;0.90;0.50;;;;;;;;;;5004048;28;20279;-56
2023/05/19 08:30:13;;;;;;;3.58;0.90;;;;;;;;;;4993312;28;20209;-55
2023/05/19 08:32:40;;;;;;;1.02;0.63;;;;;;;;;;5004308;28;20263;-56
2023/05/19 08:35:08;;;;;;;0.82;0.73;;;;;;;;;;5006650;28;20326;-56
2023/05/19 08:37:36;;;;;;;0.30;0.30;;;;;;;;;;5006875;28;20209;-56
2023/05/19 08:40:03;;;;;;;2.10;0.90;;;;;;;;;;5006339;28;20323;-56
2023/05/19 08:42:32;;;;;;;2.92;0.82;;;;;;;;;;5006518;28;20596;-56
2023/05/19 08:44:59;;;;;;;1.55;0.68;;;;;;;;;;5006222;28;20217;-56
2023/05/19 08:47:26;;;;;;;0.82;0.82;;;;;;;;;;5006506;28;20229;-56
2023/05/19 08:49:56;;;;;;;0.75;0.50;;;;;;;;;;5006812;28;20209;-56
2023/05/19 08:52:28;;;;;;;0.77;0.70;;;;;;;;;;5006524;28;20295;-56
2023/05/19 08:54:59;;;;;;;0.47;0.47;;;;;;;;;;5006349;28;20204;-56
2023/05/19 08:57:26;;;;;;;1.13;0.85;;;;;;;;;;5005928;28;20212;-57
2023/05/19 08:59:56;;;;;;;0.50;0.50;;;;;;;;;;5001090;28;20373;-56
2023/05/19 09:02:23;;;;;;;1.48;0.93;;;;;;;;;;5003634;28;20502;-56
2023/05/19 09:04:50;;;;;;;1.58;0.55;;;;;;;;;;5005544;28;20208;-57
2023/05/19 09:07:18;;;;;;;1.38;0.77;;;;;;;;;;5005746;28;20288;-57
2023/05/19 09:09:45;;;;;;;1.70;1.13;;;;;;;;;;5005838;28;20213;-57
2023/05/19 09:12:12;;;;;;;0.50;0.50;;;;;;;;;;5006102;28;20622;-57
2023/05/19 09:14:39;;;;;;;0.40;0.40;;;;;;;;;;5006383;28;20217;-57
2023/05/19 09:17:08;;;;;;;0.60;0.60;;;;;;;;;;5004317;28;20211;-57
2023/05/19 09:19:35;;;;;;;2.05;0.60;;;;;;;;;;5006326;28;20219;-57
2023/05/19 09:22:03;;;;;;;0.70;0.70;;;;;;;;;;5006107;28;20209;-57
2023/05/19 09:24:30;;;;;;;0.57;0.57;;;;;;;;;;5006754;28;20208;-56
2023/05/19 09:26:57;;;;;;;1.17;0.70;;;;;;;;;;5006377;28;20233;-57
2023/05/19 09:29:24;;;;;;;0.50;0.50;;;;;;;;;;5005899;28;20351;-57
2023/05/19 09:31:53;;;;;;;0.50;0.50;;;;;;;;;;5005987;28;20330;-57
2023/05/19 09:34:23;;;;;;;0.80;0.52;;;;;;;;;;5006291;28;20217;-57
2023/05/19 09:36:51;;;;;;;0.98;0.93;;;;;;;;;;5006646;28;20216;-56
2023/05/19 09:39:19;;;;;;;1.27;0.60;;;;;;;;;;5006405;28;20267;-57
2023/05/19 09:41:46;;;;;;;0.73;0.57;;;;;;;;;;5005799;28;20213;-57
2023/05/19 09:44:14;;;;;;;1.58;0.68;;;;;;;;;;5005702;28;20213;-57
2023/05/19 09:46:48;;;;;;;1.02;0.60;;;;;;;;;;5006310;28;20488;-57
2023/05/19 09:49:20;;;;;;;1.63;0.70;;;;;;;;;;5006231;28;20221;-56
2023/05/19 09:51:49;;;;;;;0.60;0.60;;;;;;;;;;5005931;28;20240;-57
2023/05/19 09:54:16;;;;;;;0.75;0.75;;;;;;;;;;5006332;28;20589;-56
2023/05/19 09:56:43;;;;;;;0.40;0.40;;;;;;;;;;5006243;28;20217;-57
2023/05/19 09:59:11;;;;;;;0.50;0.38;;;;;;;;;;5007206;28;20232;-57
2023/05/19 10:01:40;;;;;;;0.88;0.52;;;;;;;;;;5009314;28;20215;-57
2023/05/19 10:04:07;;;;;;;1.35;0.60;;;;;;;;;;5009389;28;20213;-56
2023/05/19 10:06:35;;;;;;;3.63;0.40;;;;;;;;;;5009727;28;20244;-57
2023/05/19 10:09:04;;;;;;;2.22;0.63;;;;;;;;;;5009256;28;20351;-56
2023/05/19 10:11:32;;;;;;;3.60;0.40;;;;;;;;;;5008948;28;20212;-57
2023/05/19 10:13:59;;;;;;;1.42;0.60;;;;;;;;;;5008915;28;20225;-56
2023/05/19 10:16:27;;;;;;;0.50;0.50;;;;;;;;;;5009223;28;20236;-57
2023/05/19 10:18:55;;;;;;;0.90;0.40;;;;;;;;;;5009542;28;20232;-57
2023/05/19 10:21:22;;;;;;;0.60;0.60;;;;;;;;;;5008735;28;20229;-56
2023/05/19 10:23:49;;;;;;;1.02;0.82;;;;;;;;;;5008555;28;20715;-58
2023/05/19 10:26:18;;;;;;;0.65;0.40;;;;;;;;;;5008785;28;20213;-57
2023/05/19 10:28:46;;;;;;;2.50;0.57;;;;;;;;;;5009133;28;20228;-57
2023/05/19 10:31:16;;;;;;;1.55;0.60;;;;;;;;;;5008884;28;20275;-57
2023/05/19 10:33:53;;;;;;;0.55;0.55;;;;;;;;;;5008742;28;20609;-57
2023/05/19 10:36:30;;;;;;;1.25;0.68;;;;;;;;;;4999310;28;20209;-56
2023/05/19 10:39:01;;;;;;;2.83;0.63;;;;;;;;;;5001454;28;20261;-56
2023/05/19 10:41:39;;;;;;;0.60;0.60;;;;;;;;;;4989787;28;20501;-56
2023/05/19 10:44:10;;;;;;;0.40;0.40;;;;;;;;;;5007150;28;20236;-56
2023/05/19 10:46:37;;;;;;;0.40;0.40;;;;;;;;;;5007749;28;20224;-55
2023/05/19 10:49:04;;;;;;;0.60;0.60;;;;;;;;;;4996606;28;20723;-56
2023/05/19 10:51:31;;;;;;;0.55;0.55;;;;;;;;;;4999981;28;20212;-56
2023/05/19 10:53:58;;;;;;;0.25;0.25;;;;;;;;;;5001214;28;20264;-56
2023/05/19 10:56:33;;;;;;;0.65;0.63;;;;;;;;;;4997137;28;20225;-56
2023/05/19 10:59:00;;;;;;;0.47;0.47;;;;;;;;;;5001199;28;20202;-56
2023/05/19 11:01:31;;;;;;;0.40;0.40;;;;;;;;;;4996528;28;20205;-56
2023/05/19 11:04:04;;;;;;;1.70;0.40;;;;;;;;;;5008807;28;20886;-56
2023/05/19 11:06:32;;;;;;;0.40;0.40;;;;;;;;;;5005457;28;20480;-56
2023/05/19 11:09:00;;;;;;;0.63;0.63;;;;;;;;;;4989423;28;20375;-55
2023/05/19 11:11:28;;;;;;;0.60;0.60;;;;;;;;;;4989690;28;20305;-55
2023/05/19 11:13:56;;;;;;;0.68;0.60;;;;;;;;;;5008387;28;20315;-59
2023/05/19 11:16:30;;;;;;;0.32;0.32;;;;;;;;;;5007668;28;20603;-56
2023/05/19 11:19:00;;;;;;;0.45;0.45;;;;;;;;;;5008153;28;20205;-57
2023/05/19 11:21:41;;;;;;;1.20;0.80;;;;;;;;;;4990740;28;20279;-57
2023/05/19 11:24:08;;;;;;;1.95;0.70;;;;;;;;;;4989426;28;20312;-56
2023/05/19 11:26:42;;;;;;;1.10;0.90;;;;;;;;;;5006775;28;20223;-57
2023/05/19 11:29:11;;;;;;;0.75;0.75;;;;;;;;;;4995725;28;20313;-56
2023/05/19 11:31:40;;;;;;;0.32;0.30;;;;;;;;;;5018053;28;20295;-57
2023/05/19 11:34:07;;;;;;;0.63;0.63;;;;;;;;;;5025085;28;20208;-56
2023/05/19 11:36:34;;;;;;;0.43;0.43;;;;;;;;;;5001952;28;20394;-56
2023/05/19 11:39:02;;;;;;;0.50;0.50;;;;;;;;;;5006605;28;20390;-57
2023/05/19 11:41:29;;;;;;;0.40;0.40;;;;;;;;;;5006530;28;20271;-57
2023/05/19 11:43:57;;;;;;;0.60;0.60;;;;;;;;;;5006949;28;20299;-56
2023/05/19 11:46:25;;;;;;;0.55;0.55;;;;;;;;;;5010667;28;20322;-56
2023/05/19 11:48:54;;;;;;;0.73;0.70;;;;;;;;;;5027431;28;20235;-57
2023/05/19 11:51:22;;;;;;;0.95;0.80;;;;;;;;;;5027377;28;20212;-57
2023/05/19 11:53:50;;;;;;;0.65;0.65;;;;;;;;;;5007213;28;20228;-57
2023/05/19 11:56:17;;;;;;;0.50;0.50;;;;;;;;;;5004929;28;20251;-57
2023/05/19 11:58:44;;;;;;;0.60;0.60;;;;;;;;;;5004573;28;20217;-56
2023/05/19 12:01:11;;;;;;;0.77;0.65;;;;;;;;;;5006836;28;20217;-57
2023/05/19 12:03:39;;;;;;;0.68;0.68;;;;;;;;;;5006808;28;20212;-57
2023/05/19 12:06:07;;;;;;;0.82;0.63;;;;;;;;;;5007124;28;20596;-57
2023/05/19 12:08:35;;;;;;;1.35;0.77;;;;;;;;;;5007019;28;20244;-57
2023/05/19 12:11:02;;;;;;;1.20;0.80;;;;;;;;;;5002807;28;20362;-57
2023/05/19 12:13:29;;;;;;;0.63;0.63;;;;;;;;;;4989486;28;20596;-60
2023/05/19 12:16:00;;;;;;;0.80;0.70;;;;;;;;;;4998056;28;20201;-60
2023/05/19 12:18:30;;;;;;;1.02;0.95;;;;;;;;;;5003779;28;20285;-59
2023/05/19 12:20:58;;;;;;;0.70;0.63;;;;;;;;;;4986415;28;20661;-60
2023/05/19 12:23:25;;;;;;;1.75;0.90;;;;;;;;;;4986971;28;20231;-60
2023/05/19 12:25:53;;;;;;;1.60;0.52;;;;;;;;;;4992089;28;20288;-60
2023/05/19 12:28:20;;;;;;;1.30;0.63;;;;;;;;;;4988812;28;20222;-60
2023/05/19 12:30:48;;;;;;;0.65;0.60;;;;;;;;;;4992566;28;20296;-60
2023/05/19 12:33:15;;;;;;;0.93;0.63;;;;;;;;;;4989781;28;20198;-60
2023/05/19 12:35:43;;;;;;;0.68;0.52;;;;;;;;;;4990622;28;20202;-59
2023/05/19 12:38:11;;;;;;;0.70;0.70;;;;;;;;;;4989146;28;20228;-59
2023/05/19 12:40:38;;;;;;;0.80;0.75;;;;;;;;;;5001752;28;20228;-60
2023/05/19 12:43:06;;;;;;;0.93;0.90;;;;;;;;;;5005608;28;20283;-60
2023/05/19 12:45:34;;;;;;;2.30;0.75;;;;;;;;;;4992102;28;20241;-59
2023/05/19 12:48:03;;;;;;;0.63;0.63;;;;;;;;;;5000450;28;20250;-59
2023/05/19 12:50:31;;;;;;;0.75;0.65;;;;;;;;;;4998315;28;20259;-58
2023/05/19 12:52:58;;;;;;;0.98;0.80;;;;;;;;;;5006019;28;20213;-59
2023/05/19 12:55:27;;;;;;;0.57;0.57;;;;;;;;;;4992771;28;20292;-62
2023/05/19 12:57:56;;;;;;;1.20;0.80;;;;;;;;;;4997469;28;20878;-59
2023/05/19 13:00:26;;;;;;;0.85;0.85;;;;;;;;;;4988766;28;20210;-59
2023/05/19 13:02:58;;;;;;;1.00;0.68;;;;;;;;;;5005073;28;20215;-60
2023/05/19 13:05:26;;;;;;;1.08;0.70;;;;;;;;;;4998874;28;20233;-59
2023/05/19 13:07:57;;;;;;;0.60;0.60;;;;;;;;;;5000919;28;20200;-60
2023/05/19 13:10:25;;;;;;;0.43;0.30;;;;;;;;;;4997113;28;20668;-59
2023/05/19 13:12:54;;;;;;;0.65;0.65;;;;;;;;;;5007028;28;20209;-59
2023/05/19 13:15:22;;;;;;;0.43;0.43;;;;;;;;;;4996400;28;20533;-60
2023/05/19 13:17:49;;;;;;;1.48;0.68;;;;;;;;;;4985973;28;20268;-59
2023/05/19 13:20:16;;;;;;;2.38;0.70;;;;;;;;;;4996175;28;20649;-59
2023/05/19 13:22:43;;;;;;;1.60;0.70;;;;;;;;;;5006039;28;20287;-60
2023/05/19 13:25:10;;;;;;;0.70;0.70;;;;;;;;;;4987508;28;20206;-59
2023/05/19 13:27:37;;;;;;;1.05;0.70;;;;;;;;;;4998876;28;20978;-59
2023/05/19 13:30:07;;;;;;;2.33;0.70;;;;;;;;;;4998697;28;20229;-59
2023/05/19 13:32:34;;;;;;;0.50;0.50;;;;;;;;;;4981472;28;20248;-59
2023/05/19 13:35:01;;;;;;;0.60;0.60;;;;;;;;;;4993354;28;20209;-59
2023/05/19 13:37:28;;;;;;;0.80;0.65;;;;;;;;;;4994007;28;20205;-56
2023/05/19 13:39:56;;;;;;;0.82;0.60;;;;;;;;;;5008411;28;20205;-56
2023/05/19 13:42:23;;;;;;;0.50;0.50;;;;;;;;;;5008566;28;20205;-58
2023/05/19 13:44:50;;;;;;;0.57;0.57;;;;;;;;;;5009462;28;20255;-59
2023/05/19 13:47:18;;;;;;;0.98;0.55;;;;;;;;;;4995747;28;20256;-60
2023/05/19 13:49:45;;;;;;;1.52;0.47;;;;;;;;;;5000365;28;20241;-63
2023/05/19 13:52:13;;;;;;;0.52;0.52;;;;;;;;;;5000383;28;20664;-60
2023/05/19 13:54:40;;;;;;;0.60;0.60;;;;;;;;;;5011416;28;20213;-58
2023/05/19 13:57:07;;;;;;;2.50;0.80;;;;;;;;;;4995578;28;20275;-57
2023/05/19 13:59:35;;;;;;;0.90;0.50;;;;;;;;;;4989197;28;20236;-56
2023/05/19 14:02:02;;;;;;;1.20;0.77;;;;;;;;;;4989650;28;20209;-57
2023/05/19 14:04:30;;;;;;;2.13;0.50;;;;;;;;;;4989341;28;20693;-56
2023/05/19 14:06:58;;;;;;;0.77;0.60;;;;;;;;;;4989363;28;20400;-57
2023/05/19 14:09:25;;;;;;;0.60;0.60;;;;;;;;;;4989731;28;20791;-57
2023/05/19 14:11:52;;;;;;;2.58;0.70;;;;;;;;;;4987452;28;20213;-57
2023/05/19 14:14:19;;;;;;;0.60;0.60;;;;;;;;;;4991844;28;20210;-56
2023/05/19 14:16:46;;;;;;;0.80;0.80;;;;;;;;;;4989522;28;20209;-57
2023/05/19 14:19:13;;;;;;;0.98;0.68;;;;;;;;;;4989771;28;20214;-56
2023/05/19 14:21:41;;;;;;;1.08;0.70;;;;;;;;;;4988749;28;20275;-57
2023/05/19 14:24:08;;;;;;;0.77;0.77;;;;;;;;;;4993507;28;20237;-58
2023/05/19 14:26:35;;;;;;;1.45;0.73;;;;;;;;;;5008773;28;20988;-57
2023/05/19 14:29:02;;;;;;;0.60;0.60;;;;;;;;;;5009024;28;20277;-58
2023/05/19 14:31:29;;;;;;;0.50;0.50;;;;;;;;;;5008473;28;20213;-58
2023/05/19 14:33:56;;;;;;;0.60;0.60;;;;;;;;;;5008592;28;20224;-58
2023/05/19 14:36:24;;;;;;;0.60;0.60;;;;;;;;;;5008865;28;20663;-57
2023/05/19 14:38:52;;;;;;;1.10;0.57;;;;;;;;;;5008753;28;20356;-57
2023/05/19 14:41:20;;;;;;;0.50;0.50;;;;;;;;;;5008290;28;20267;-57
2023/05/19 14:43:47;;;;;;;3.80;0.60;;;;;;;;;;5007894;28;20358;-58
2023/05/19 14:46:14;;;;;;;0.50;0.50;;;;;;;;;;5007841;28;20213;-58
2023/05/19 14:48:41;;;;;;;1.23;0.85;;;;;;;;;;5008699;28;20245;-58
2023/05/19 14:51:08;;;;;;;0.93;0.57;;;;;;;;;;5008099;28;20217;-57